Time;durP1;ratioP1;P1;durP2;ratioP2;P2;SDS_P1;SDS_P2;PMS_P1;PMS_P2;Temp;Humidity;BMP_temperature;BMP_pressure;BME280_temperature;BME280_humidity;BME280_pressure;Samples;Min_cycle;Max_cycle;Signal;HPM_P1;HPM_P2
2021/06/21 00:00:13;;;;;;;;;;;;;;;27.79;44.28;100256.67;1651109;86;20151;-77
2021/06/21 00:02:42;;;;;;;;;;;;;;;27.81;44.28;100258.61;1651091;86;20163;-77
2021/06/21 00:05:09;;;;;;;;;;;;;;;27.81;44.21;100251.73;1651111;86;20166;-77
2021/06/21 00:07:35;;;;;;;;;;;;;;;27.84;44.20;100248.96;1651317;87;20143;-76
2021/06/21 00:10:01;;;;;;;;;;;;;;;27.88;44.15;100247.86;1651016;87;20178;-77
2021/06/21 00:12:27;;;;;;;;;;;;;;;27.89;44.03;100257.77;1651292;86;20146;-77
2021/06/21 00:14:55;;;;;;;;;;;;;;;27.88;43.98;100263.00;1651137;86;20433;-77
2021/06/21 00:17:20;;;;;;;;;;;;;;;27.88;43.88;100272.63;1651250;87;20162;-78
2021/06/21 00:19:46;;;;;;;;;;;;;;;27.85;43.94;100264.39;1651351;86;20220;-77
2021/06/21 00:22:15;;;;;;;;;;;;;;;27.85;44.00;100270.45;1651283;86;20130;-77
2021/06/21 00:24:47;;;;;;;;;;;;;;;27.84;43.81;100267.41;1654285;85;20153;-77
2021/06/21 00:27:15;;;;;;;;;;;;;;;27.80;43.89;100270.73;1650529;87;20185;-77
2021/06/21 00:29:43;;;;;;;;;;;;;;;27.76;44.05;100262.75;1649532;87;20186;-77
2021/06/21 00:32:09;;;;;;;;;;;;;;;27.74;44.20;100259.98;1649638;87;20197;-77
2021/06/21 00:34:35;;;;;;;;;;;;;;;27.74;44.33;100259.98;1649826;87;20501;-77
2021/06/21 00:37:01;;;;;;;;;;;;;;;27.70;44.40;100255.55;1649628;86;20189;-77
2021/06/21 00:39:27;;;;;;;;;;;;;;;27.69;44.39;100253.91;1649879;87;20191;-77
2021/06/21 00:41:53;;;;;;;;;;;;;;;27.68;44.41;100256.39;1649568;87;20834;-77
2021/06/21 00:44:21;;;;;;;;;;;;;;;27.66;44.47;100254.48;1651058;86;20103;-78
2021/06/21 00:46:47;;;;;;;;;;;;;;;27.63;44.49;100251.45;1651401;86;20229;-77
2021/06/21 00:49:13;;;;;;;;;;;;;;;27.61;44.45;100247.58;1651259;87;20154;-78
2021/06/21 00:51:39;;;;;;;;;;;;;;;27.60;44.46;100250.63;1651375;87;20232;-78
2021/06/21 00:54:05;;;;;;;;;;;;;;;27.59;44.50;100248.42;1651628;87;20226;-77
2021/06/21 00:56:30;;;;;;;;;;;;;;;27.59;44.51;100244.30;1651504;87;20226;-77
2021/06/21 00:59:00;;;;;;;;;;;;;;;27.60;44.61;100246.49;1651644;87;20156;-77
2021/06/21 01:01:26;;;;;;;;;;;;;;;27.62;44.67;100246.50;1651437;87;20132;-76
2021/06/21 01:03:53;;;;;;;;;;;;;;;27.63;44.69;100249.52;1650855;86;20148;-77
2021/06/21 01:06:20;;;;;;;;;;;;;;;27.79;44.32;100242.91;1651223;87;20480;-77
2021/06/21 01:08:47;;;;;;;;;;;;;;;27.99;43.95;100244.00;1650946;87;20140;-77
2021/06/21 01:11:13;;;;;;;;;;;;;;;28.09;43.85;100249.47;1651021;87;20144;-77
2021/06/21 01:14:03;;;;;;;;;;;;;;;27.71;44.47;100250.34;1651381;86;20220;-78
2021/06/21 01:16:39;;;;;;;;;;;;;;;27.63;44.85;100240.45;1651269;87;20182;-77
2021/06/21 01:19:29;;;;;;;;;;;;;;;27.61;45.07;100246.76;1649604;87;20152;-77
2021/06/21 01:22:17;;;;;;;;;;;;;;;27.58;45.22;100250.91;1651197;86;20453;-77
2021/06/21 01:25:05;;;;;;;;;;;;;;;27.56;45.32;100253.09;1652155;87;20421;-78
2021/06/21 01:27:42;;;;;;;;;;;;;;;27.53;45.45;100250.36;1652513;87;20139;-78
2021/06/21 01:30:13;;;;;;;;;;;;;;;27.50;45.55;100240.45;1652656;87;20144;-78
2021/06/21 01:32:54;;;;;;;;;;;;;;;27.47;45.65;100245.94;1651419;87;20435;-78
2021/06/21 01:35:30;;;;;;;;;;;;;;;27.46;45.71;100248.42;1651660;87;20527;-78
2021/06/21 01:37:58;;;;;;;;;;;;;;;27.46;45.82;100244.30;1651665;87;20144;-78
2021/06/21 01:40:24;;;;;;;;;;;;;;;27.47;45.89;100235.48;1651654;86;20174;-78
2021/06/21 01:42:53;;;;;;;;;;;;;;;27.47;45.68;100234.11;1652347;87;20177;-78
2021/06/21 01:45:19;;;;;;;;;;;;;;;27.46;45.69;100240.72;1651882;86;20164;-78
2021/06/21 01:47:47;;;;;;;;;;;;;;;27.49;45.51;100234.68;1651292;87;20194;-78
2021/06/21 01:50:16;;;;;;;;;;;;;;;27.47;45.24;100232.19;1651737;86;20181;-78
2021/06/21 01:52:42;;;;;;;;;;;;;;;27.47;45.23;100234.11;1651364;86;20172;-78
2021/06/21 01:55:10;;;;;;;;;;;;;;;27.46;45.29;100235.22;1651360;87;20210;-78
2021/06/21 01:57:36;;;;;;;;;;;;;;;27.45;45.37;100235.77;1627295;87;20144;-78
2021/06/21 02:00:05;;;;;;;;;;;;;;;27.45;45.32;100240.45;1628615;87;20767;-78
2021/06/21 02:02:31;;;;;;;;;;;;;;;27.41;45.33;100233.84;1651022;87;20448;-78
2021/06/21 02:04:57;;;;;;;;;;;;;;;27.38;45.47;100237.14;1651761;87;20147;-78
2021/06/21 02:07:23;;;;;;;;;;;;;;;27.36;45.49;100234.67;1651287;87;20242;-78
2021/06/21 02:09:51;;;;;;;;;;;;;;;27.34;45.64;100242.91;1651177;87;20207;-76
2021/06/21 02:12:20;;;;;;;;;;;;;;;27.30;45.80;100250.36;1649785;86;20471;-78
2021/06/21 02:14:50;;;;;;;;;;;;;;;27.30;45.85;100251.73;1649983;86;20619;-77
2021/06/21 02:17:19;;;;;;;;;;;;;;;27.29;45.80;100254.18;1646924;87;20183;-78
2021/06/21 02:19:45;;;;;;;;;;;;;;;27.30;45.65;100255.03;1647126;86;20192;-78
2021/06/21 02:22:12;;;;;;;;;;;;;;;27.31;45.42;100259.43;1646812;86;20187;-78
2021/06/21 02:24:38;;;;;;;;;;;;;;;27.31;45.39;100258.05;1647410;86;20498;-77
2021/06/21 02:27:06;;;;;;;;;;;;;;;27.25;45.43;100254.48;1647157;86;20187;-77
2021/06/21 02:29:32;;;;;;;;;;;;;;;27.25;45.30;100251.73;1652557;85;20183;-77
2021/06/21 02:31:58;;;;;;;;;;;;;;;27.26;45.27;100245.13;1649143;87;20197;-77
2021/06/21 02:34:24;;;;;;;;;;;;;;;27.27;45.18;100249.52;1626805;87;20527;-77
2021/06/21 02:36:50;;;;;;;;;;;;;;;27.26;45.04;100256.12;1649643;87;20203;-77
2021/06/21 02:39:18;;;;;;;;;;;;;;;27.24;45.04;100247.30;1649934;87;20296;-77
2021/06/21 02:41:45;;;;;;;;;;;;;;;27.19;45.23;100251.43;1651033;87;20487;-77
2021/06/21 02:44:11;;;;;;;;;;;;;;;27.17;45.27;100257.77;1650022;87;20182;-77
2021/06/21 02:46:38;;;;;;;;;;;;;;;27.18;45.25;100253.91;1650188;87;20776;-78
2021/06/21 02:49:04;;;;;;;;;;;;;;;27.18;45.22;100245.66;1650098;87;20232;-79
2021/06/21 02:51:54;;;;;;;;;;;;;;;27.18;45.21;100253.91;1649812;87;20227;-77
2021/06/21 02:54:26;;;;;;;;;;;;;;;27.18;45.29;100253.91;1649444;87;20572;-77
2021/06/21 02:57:04;;;;;;;;;;;;;;;27.19;45.47;100254.18;1649464;87;20211;-76
2021/06/21 02:59:33;;;;;;;;;;;;;;;27.22;45.46;100251.45;1649287;86;20528;-77
2021/06/21 03:02:00;;;;;;;;;;;;;;;27.31;45.20;100248.42;1650175;86;20180;-77
2021/06/21 03:04:26;;;;;;;;;;;;;;;27.37;45.13;100247.32;1651103;86;20188;-77
2021/06/21 03:06:52;;;;;;;;;;;;;;;27.41;45.15;100254.48;1650983;87;20184;-77
2021/06/21 03:09:19;;;;;;;;;;;;;;;27.43;45.12;100246.21;1650491;87;20171;-77
2021/06/21 03:11:47;;;;;;;;;;;;;;;27.45;45.04;100251.45;1650497;87;20220;-77
2021/06/21 03:14:13;;;;;;;;;;;;;;;27.46;45.10;100250.35;1648061;87;20187;-77
2021/06/21 03:16:39;;;;;;;;;;;;;;;27.46;45.16;100242.09;1648248;86;20177;-77
2021/06/21 03:19:05;;;;;;;;;;;;;;;27.45;45.26;100246.78;1626661;85;20175;-77
2021/06/21 03:21:31;;;;;;;;;;;;;;;27.44;45.37;100245.69;1650883;86;20850;-77
2021/06/21 03:23:57;;;;;;;;;;;;;;;27.42;45.34;100251.44;1647625;86;20190;-77
2021/06/21 03:26:30;;;;;;;;;;;;;;;27.43;45.41;100245.39;1648382;87;20476;-77
2021/06/21 03:28:56;;;;;;;;;;;;;;;27.44;45.23;100251.19;1649020;87;20163;-79
2021/06/21 03:31:22;;;;;;;;;;;;;;;27.44;44.99;100251.19;1650056;86;20424;-77
2021/06/21 03:33:48;;;;;;;;;;;;;;;27.46;44.88;100251.17;1649703;86;20143;-76
2021/06/21 03:36:14;;;;;;;;;;;;;;;27.47;44.96;100253.38;1650024;87;20175;-77
2021/06/21 03:38:40;;;;;;;;;;;;;;;27.47;45.03;100250.62;1625377;87;20473;-78
2021/06/21 03:41:07;;;;;;;;;;;;;;;27.48;45.10;100248.98;1649827;87;20151;-77
2021/06/21 03:43:34;;;;;;;;;;;;;;;27.50;45.26;100244.58;1648984;87;20179;-78
2021/06/21 03:46:03;;;;;;;;;;;;;;;27.47;45.38;100247.31;1649823;87;20464;-78
2021/06/21 03:48:30;;;;;;;;;;;;;;;27.47;45.39;100243.73;1649865;87;20488;-77
2021/06/21 03:50:56;;;;;;;;;;;;;;;27.47;45.55;100246.49;1649639;86;20139;-78
2021/06/21 03:53:24;;;;;;;;;;;;;;;27.48;45.69;100253.64;1649661;87;20147;-77
2021/06/21 03:55:50;;;;;;;;;;;;;;;27.48;45.74;100253.12;1650005;87;20200;-77
2021/06/21 03:58:17;;;;;;;;;;;;;;;27.47;45.54;100256.12;1649704;87;20277;-77
2021/06/21 04:00:43;;;;;;;;;;;;;;;27.43;45.47;100257.77;1649614;86;20182;-77
2021/06/21 04:03:09;;;;;;;;;;;;;;;27.39;45.61;100248.41;1649539;86;20185;-77
2021/06/21 04:05:37;;;;;;;;;;;;;;;27.39;45.75;100258.04;1649489;87;20182;-77
2021/06/21 04:08:05;;;;;;;;;;;;;;;27.41;45.81;100253.92;1649284;85;20198;-77
2021/06/21 04:10:32;;;;;;;;;;;;;;;27.44;45.80;100239.63;1658662;85;20161;-77
2021/06/21 04:12:58;;;;;;;;;;;;;;;27.49;45.82;100248.44;1663168;86;20157;-77
2021/06/21 04:15:28;;;;;;;;;;;;;;;27.52;45.79;100258.31;1663866;86;20758;-77
2021/06/21 04:17:55;;;;;;;;;;;;;;;27.51;45.92;100255.84;1663648;86;20368;-78
2021/06/21 04:20:21;;;;;;;;;;;;;;;27.50;46.11;100258.33;1663802;86;20189;-78
2021/06/21 04:22:47;;;;;;;;;;;;;;;27.50;46.30;100256.41;1663614;86;20511;-78
2021/06/21 04:25:15;;;;;;;;;;;;;;;27.62;46.29;100261.64;1663627;86;20792;-78
2021/06/21 04:27:41;;;;;;;;;;;;;;;27.61;46.48;100265.47;1664236;85;20328;-78
2021/06/21 04:30:09;;;;;;;;;;;;;;;27.65;46.43;100262.44;1664597;86;20168;-78
2021/06/21 04:32:35;;;;;;;;;;;;;;;27.71;46.28;100264.11;1665531;86;20125;-78
2021/06/21 04:35:03;;;;;;;;;;;;;;;27.75;46.12;100265.77;1660631;85;20176;-78
2021/06/21 04:37:29;;;;;;;;;;;;;;;27.79;46.16;100264.94;1665091;85;20248;-78
2021/06/21 04:39:57;;;;;;;;;;;;;;;27.88;46.18;100266.58;1664440;86;20145;-77
2021/06/21 04:42:23;;;;;;;;;;;;;;;27.94;45.86;100267.41;1664875;86;20275;-78
2021/06/21 04:44:49;;;;;;;;;;;;;;;28.01;45.86;100258.30;1663650;86;20128;-78
2021/06/21 04:47:15;;;;;;;;;;;;;;;28.04;45.69;100255.00;1663811;86;20180;-78
2021/06/21 04:49:42;;;;;;;;;;;;;;;28.09;45.80;100266.00;1663820;86;20213;-78
2021/06/21 04:52:10;;;;;;;;;;;;;;;28.14;45.88;100260.47;1663080;86;20483;-78
2021/06/21 04:54:35;;;;;;;;;;;;;;;28.21;45.68;100258.27;1662779;86;20181;-78
2021/06/21 04:57:02;;;;;;;;;;;;;;;28.27;45.73;100259.88;1652923;85;20264;-78
2021/06/21 04:59:28;;;;;;;;;;;;;;;28.32;45.47;100254.36;1649586;86;20132;-78
2021/06/21 05:01:54;;;;;;;;;;;;;;;28.37;45.14;100251.34;1649688;87;20186;-79
2021/06/21 05:04:20;;;;;;;;;;;;;;;28.41;45.09;100244.16;1650308;86;20779;-78
2021/06/21 05:06:47;;;;;;;;;;;;;;;28.45;45.09;100243.87;1652183;86;20137;-77
2021/06/21 05:09:14;;;;;;;;;;;;;;;28.46;44.80;100249.09;1651366;87;20171;-77
2021/06/21 05:11:40;;;;;;;;;;;;;;;28.50;44.99;100246.61;1650827;86;20191;-77
2021/06/21 05:14:06;;;;;;;;;;;;;;;28.54;44.97;100242.19;1653833;85;20143;-77
2021/06/21 05:16:33;;;;;;;;;;;;;;;28.55;44.50;100243.83;1648705;87;20322;-77
2021/06/21 05:19:00;;;;;;;;;;;;;;;28.53;44.49;100244.12;1648436;87;20170;-77
2021/06/21 05:21:26;;;;;;;;;;;;;;;28.52;44.73;100241.63;1648653;87;20178;-77
2021/06/21 05:23:52;;;;;;;;;;;;;;;28.57;44.70;100244.38;1655285;85;20237;-78
2021/06/21 05:26:18;;;;;;;;;;;;;;;28.61;44.27;100245.44;1649989;85;20148;-78
2021/06/21 05:28:44;;;;;;;;;;;;;;;28.61;44.39;100237.17;1647894;87;20186;-79
2021/06/21 05:31:11;;;;;;;;;;;;;;;28.66;44.33;100250.95;1648661;85;20502;-80
2021/06/21 05:33:36;;;;;;;;;;;;;;;28.69;44.29;100248.98;1653111;86;20430;-78
2021/06/21 05:36:03;;;;;;;;;;;;;;;28.73;44.28;100250.63;1646317;87;20304;-78
2021/06/21 05:38:29;;;;;;;;;;;;;;;28.79;44.14;100257.19;1645503;87;20190;-79
2021/06/21 05:40:55;;;;;;;;;;;;;;;28.81;43.93;100254.99;1646437;87;20202;-78
2021/06/21 05:43:21;;;;;;;;;;;;;;;28.85;43.65;100257.19;1646401;86;20225;-78
2021/06/21 05:45:47;;;;;;;;;;;;;;;28.89;43.62;100258.24;1653486;85;20201;-78
2021/06/21 05:48:13;;;;;;;;;;;;;;;28.91;43.50;100260.17;1648488;87;20273;-79
2021/06/21 05:50:39;;;;;;;;;;;;;;;28.93;43.60;100260.70;1664461;85;20176;-78
2021/06/21 05:53:06;;;;;;;;;;;;;;;28.98;43.47;100264.87;1673439;85;20188;-78
2021/06/21 05:55:32;;;;;;;;;;;;;;;29.04;43.56;100271.98;1674744;85;20195;-78
2021/06/21 05:58:00;;;;;;;;;;;;;;;29.09;43.38;100266.44;1674057;85;20168;-77
2021/06/21 06:00:27;;;;;;;;;;;;;;;29.14;43.18;100262.82;1652576;85;20194;-77
2021/06/21 06:02:53;;;;;;;;;;;;;;;29.20;43.34;100256.14;1648507;86;20179;-77
2021/06/21 06:05:19;;;;;;;;;;;;;;;29.25;43.21;100263.00;1651684;85;20290;-78
2021/06/21 06:07:46;;;;;;;;;;;;;;;29.31;43.34;100257.17;1664904;86;20178;-78
2021/06/21 06:10:13;;;;;;;;;;;;;;;29.42;43.18;100270.88;1641326;85;20473;-77
2021/06/21 06:12:39;;;;;;;;;;;;;;;29.50;42.67;100267.52;1651067;86;20565;-77
2021/06/21 06:15:06;;;;;;;;;;;;;;;29.59;42.61;100269.95;1650880;85;20211;-77
2021/06/21 06:17:33;;;;;;;;;;;;;;;29.68;42.61;100268.77;1647026;87;20179;-78
2021/06/21 06:19:59;;;;;;;;;;;;;;;29.78;42.56;100266.73;1647185;87;20237;-78
2021/06/21 06:22:25;;;;;;;;;;;;;;;29.90;42.26;100271.05;1646435;87;20183;-79
2021/06/21 06:24:51;;;;;;;;;;;;;;;30.01;41.93;100269.83;1646020;87;20203;-78
2021/06/21 06:27:17;;;;;;;;;;;;;;;30.13;41.97;100269.44;1651251;86;20185;-78
2021/06/21 06:29:44;;;;;;;;;;;;;;;30.25;41.68;100279.00;1685088;84;20206;-78
2021/06/21 06:32:09;;;;;;;;;;;;;;;30.38;41.55;100282.16;1641831;85;20225;-76
2021/06/21 06:34:37;;;;;;;;;;;;;;;30.49;41.38;100283.70;1634423;87;20234;-79
2021/06/21 06:37:04;;;;;;;;;;;;;;;30.59;41.07;100278.03;1645907;87;20288;-79
2021/06/21 06:39:30;;;;;;;;;;;;;;;30.70;40.95;100282.30;1652749;86;20194;-78
2021/06/21 06:41:56;;;;;;;;;;;;;;;30.81;40.68;100278.32;1648134;86;20209;-78
2021/06/21 06:44:22;;;;;;;;;;;;;;;30.95;40.44;100273.44;1647635;86;20193;-79
2021/06/21 06:46:50;;;;;;;;;;;;;;;31.10;40.52;100267.67;1653634;85;20695;-79
2021/06/21 06:49:16;;;;;;;;;;;;;;;31.24;39.92;100282.39;1647363;87;20464;-78
2021/06/21 06:51:44;;;;;;;;;;;;;;;31.38;40.02;100286.63;1644837;86;20480;-76
2021/06/21 06:54:22;;;;;;;;;;;;;;;31.54;39.53;100283.07;1658188;85;20204;-83
2021/06/21 06:59:23;;;;;;;;;;;;;;;31.77;39.13;100293.19;1644393;87;20182;-77
2021/06/21 07:01:49;;;;;;;;;;;;;;;31.94;38.58;100290.45;1648535;85;20331;-81
2021/06/21 07:04:15;;;;;;;;;;;;;;;32.06;38.19;100281.06;1647728;87;20257;-80
2021/06/21 07:06:43;;;;;;;;;;;;;;;32.15;38.06;100281.98;1646961;87;20183;-77
2021/06/21 07:09:10;;;;;;;;;;;;;;;32.23;38.18;100284.06;1649564;87;20171;-76
2021/06/21 07:11:37;;;;;;;;;;;;;;;32.33;37.44;100276.92;1649878;86;20599;-78
2021/06/21 07:14:04;;;;;;;;;;;;;;;32.37;37.49;100274.39;1649390;86;20383;-78
2021/06/21 07:16:32;;;;;;;;;;;;;;;32.42;37.07;100281.78;1649148;86;20178;-77
2021/06/21 07:18:58;;;;;;;;;;;;;;;32.38;37.24;100276.02;1648980;87;20562;-78
2021/06/21 07:21:24;;;;;;;;;;;;;;;32.41;37.49;100275.98;1648865;87;20209;-77
2021/06/21 07:23:50;;;;;;;;;;;;;;;32.48;37.41;100275.02;1648374;86;20676;-77
2021/06/21 07:26:16;;;;;;;;;;;;;;;32.47;37.07;100273.36;1648590;86;20253;-78
2021/06/21 07:28:42;;;;;;;;;;;;;;;32.45;37.63;100271.47;1647845;87;20214;-78
2021/06/21 07:31:08;;;;;;;;;;;;;;;32.47;37.45;100278.33;1648274;86;20193;-78
2021/06/21 07:33:34;;;;;;;;;;;;;;;32.41;37.18;100275.98;1648013;87;20201;-77
2021/06/21 07:36:00;;;;;;;;;;;;;;;32.36;37.62;100276.06;1648883;86;20395;-78
2021/06/21 07:38:26;;;;;;;;;;;;;;;32.33;37.40;100274.14;1650203;87;20281;-78
2021/06/21 07:40:53;;;;;;;;;;;;;;;32.32;37.42;100280.83;1649549;86;20170;-78
2021/06/21 07:43:19;;;;;;;;;;;;;;;32.41;37.36;100275.98;1649558;87;20261;-78
2021/06/21 07:45:46;;;;;;;;;;;;;;;32.51;37.50;100284.91;1649145;86;20190;-79
2021/06/21 07:48:12;;;;;;;;;;;;;;;32.60;37.27;100288.34;1651440;85;20183;-78
2021/06/21 07:50:39;;;;;;;;;;;;;;;32.63;37.41;100290.51;1639395;86;20487;-78
2021/06/21 07:53:06;;;;;;;;;;;;;;;32.69;37.35;100285.92;1649481;86;20257;-78
2021/06/21 07:55:33;;;;;;;;;;;;;;;32.76;37.12;100288.28;1647810;87;20166;-78
2021/06/21 07:58:01;;;;;;;;;;;;;;;32.82;36.78;100286.47;1647048;85;20178;-78
2021/06/21 08:00:27;;;;;;;;;;;;;;;32.87;36.68;100284.14;1646317;87;20325;-78
2021/06/21 08:02:53;;;;;;;;;;;;;;;32.93;36.35;100282.95;1646012;87;20174;-77
2021/06/21 08:05:20;;;;;;;;;;;;;;;32.96;36.31;100275.37;1645471;86;20155;-79
2021/06/21 08:07:46;;;;;;;;;;;;;;;33.00;36.51;100276.95;1647758;86;20154;-78
2021/06/21 08:10:13;;;;;;;;;;;;;;;33.02;36.76;100271.36;1646907;87;20404;-78
2021/06/21 08:12:39;;;;;;;;;;;;;;;33.05;36.74;100272.11;1647178;87;20194;-78
2021/06/21 08:15:06;;;;;;;;;;;;;;;33.06;36.42;100279.86;1650458;85;20151;-78
2021/06/21 08:17:32;;;;;;;;;;;;;;;32.97;36.68;100272.02;1648209;86;20186;-78
2021/06/21 08:19:58;;;;;;;;;;;;;;;32.91;36.73;100284.37;1649671;87;20229;-78
2021/06/21 08:22:27;;;;;;;;;;;;;;;32.90;36.95;100284.09;1649403;85;20150;-78
2021/06/21 08:24:53;;;;;;;;;;;;;;;32.86;37.17;100281.69;1663748;86;20161;-79
2021/06/21 08:27:19;;;;;;;;;;;;;;;32.75;37.21;100280.53;1663752;86;20176;-78
2021/06/21 08:29:45;;;;;;;;;;;;;;;32.59;37.46;100281.98;1662958;86;20837;-78
2021/06/21 08:32:11;;;;;;;;;;;;;;;32.48;37.96;100277.80;1661649;85;20177;-78
2021/06/21 08:34:38;;;;;;;;;;;;;;;32.47;38.10;100278.91;1662056;86;20780;-77
2021/06/21 08:37:04;;;;;;;;;;;;;;;32.41;38.27;100285.69;1659181;85;20154;-78
2021/06/21 08:39:31;;;;;;;;;;;;;;;32.38;38.15;100290.45;1657179;85;20151;-77
2021/06/21 08:41:57;;;;;;;;;;;;;;;32.26;38.43;100293.16;1653203;86;20452;-78
2021/06/21 08:44:24;;;;;;;;;;;;;;;32.23;38.85;100291.55;1657642;86;20173;-77
2021/06/21 08:46:50;;;;;;;;;;;;;;;32.25;38.86;100298.45;1658469;86;20150;-77
2021/06/21 08:49:19;;;;;;;;;;;;;;;32.25;38.80;100292.91;1652306;85;20159;-77
2021/06/21 08:51:47;;;;;;;;;;;;;;;32.22;39.00;100296.28;1652219;85;20485;-80
2021/06/21 08:54:13;;;;;;;;;;;;;;;32.24;39.42;100303.70;1674843;85;20187;-80
2021/06/21 08:56:38;;;;;;;;;;;;;;;32.27;38.81;100294.79;1664808;85;20183;-78
2021/06/21 08:59:06;;;;;;;;;;;;;;;32.33;38.93;100301.87;1663017;86;20205;-77
2021/06/21 09:01:41;;;;;;;;;;;;;;;32.40;38.76;100294.58;1660847;85;20204;-78
2021/06/21 09:04:10;;;;;;;;;;;;;;;32.40;38.30;100289.03;1652404;86;20185;-78
2021/06/21 09:06:37;;;;;;;;;;;;;;;32.38;38.47;100294.05;1651914;85;20600;-79
2021/06/21 09:09:05;;;;;;;;;;;;;;;32.22;38.85;100288.53;1648100;87;20154;-80
2021/06/21 09:11:50;;;;;;;;;;;;;;;32.10;39.07;100291.79;1648465;86;20151;-79
2021/06/21 09:14:29;;;;;;;;;;;;;;;32.04;38.92;100293.84;1649351;85;20154;-78
2021/06/21 09:17:03;;;;;;;;;;;;;;;31.87;39.44;100287.23;1658166;85;20157;-79
2021/06/21 09:19:29;;;;;;;;;;;;;;;31.85;39.76;100292.28;1648298;87;20167;-79
2021/06/21 09:21:55;;;;;;;;;;;;;;;31.78;39.62;100290.67;1648570;87;20441;-78
2021/06/21 09:24:28;;;;;;;;;;;;;;;31.70;39.72;100294.70;1648592;86;20191;-78
2021/06/21 09:26:59;;;;;;;;;;;;;;;31.66;39.98;100302.81;1634575;87;20143;-78
2021/06/21 09:29:39;;;;;;;;;;;;;;;31.55;40.20;100304.09;1648404;86;20257;-78
2021/06/21 09:32:06;;;;;;;;;;;;;;;31.48;40.54;100302.28;1647949;87;20563;-78
2021/06/21 09:34:32;;;;;;;;;;;;;;;31.46;40.89;100301.75;1653706;86;20145;-78
2021/06/21 09:37:09;;;;;;;;;;;;;;;31.53;40.73;100306.34;1663926;85;20145;-78
2021/06/21 09:39:41;;;;;;;;;;;;;;;31.44;40.72;100304.01;1663561;85;20154;-79
2021/06/21 09:42:10;;;;;;;;;;;;;;;31.35;41.17;100304.42;1650218;85;20175;-79
2021/06/21 09:44:47;;;;;;;;;;;;;;;31.32;41.46;100309.42;1649748;85;20159;-79
2021/06/21 09:47:35;;;;;;;;;;;;;;;31.32;41.65;100306.66;1650208;87;20456;-79
2021/06/21 09:50:13;;;;;;;;;;;;;;;31.33;41.53;100308.86;1649492;86;20710;-79
2021/06/21 09:52:49;;;;;;;;;;;;;;;31.34;41.84;100313.30;1649842;87;20157;-79
2021/06/21 09:55:21;;;;;;;;;;;;;;;31.37;41.54;100318.77;1649050;86;20216;-79
2021/06/21 09:57:51;;;;;;;;;;;;;;;31.31;41.55;100309.73;1644252;85;20297;-79
2021/06/21 10:00:17;;;;;;;;;;;;;;;31.20;41.55;100307.63;1650679;85;20157;-79
2021/06/21 10:02:43;;;;;;;;;;;;;;;31.15;41.99;100317.95;1641224;86;20185;-80
2021/06/21 10:05:18;;;;;;;;;;;;;;;31.11;42.09;100308.61;1662654;86;20161;-78
2021/06/21 10:07:44;;;;;;;;;;;;;;;31.06;41.79;100311.70;1663201;85;20150;-78
2021/06/21 10:10:13;;;;;;;;;;;;;;;31.05;41.92;100311.45;1661372;85;20522;-78
2021/06/21 10:12:39;;;;;;;;;;;;;;;31.05;41.96;100318.92;1649414;85;20495;-78
2021/06/21 10:15:06;;;;;;;;;;;;;;;31.10;41.60;100329.92;1646116;86;20175;-78
2021/06/21 10:17:32;;;;;;;;;;;;;;;31.08;41.41;100326.08;1645994;86;20110;-78
2021/06/21 10:19:58;;;;;;;;;;;;;;;31.09;41.28;100331.05;1666128;86;20156;-78
2021/06/21 10:22:25;;;;;;;;;;;;;;;31.03;41.43;100330.87;1666112;86;20805;-78
2021/06/21 10:24:51;;;;;;;;;;;;;;;31.02;41.56;100333.34;1622043;88;20573;-78
2021/06/21 10:27:18;;;;;;;;;;;;;;;31.01;41.82;100328.94;1648463;87;20180;-77
2021/06/21 10:29:44;;;;;;;;;;;;;;;30.97;42.27;100334.80;1648924;87;20173;-78
2021/06/21 10:32:10;;;;;;;;;;;;;;;31.03;42.25;100327.53;1648753;86;20174;-78
2021/06/21 10:34:37;;;;;;;;;;;;;;;30.99;42.63;100333.96;1649738;86;20159;-79
2021/06/21 10:37:07;;;;;;;;;;;;;;;30.97;42.60;100330.66;1649636;87;20546;-79
2021/06/21 10:39:33;;;;;;;;;;;;;;;30.96;42.17;100335.93;1649500;85;20135;-77
2021/06/21 10:42:10;;;;;;;;;;;;;;;30.92;42.32;100328.78;1649078;87;20140;-79
2021/06/21 10:44:50;;;;;;;;;;;;;;;30.90;42.65;100321.91;1648458;86;20491;-78
2021/06/21 10:47:39;;;;;;;;;;;;;;;30.90;42.53;100324.68;1648697;86;20187;-79
2021/06/21 10:50:21;;;;;;;;;;;;;;;30.81;42.58;100329.48;1623083;88;20187;-76
2021/06/21 10:52:54;;;;;;;;;;;;;;;30.75;42.74;100332.06;1622826;88;20179;-77
2021/06/21 10:55:26;;;;;;;;;;;;;;;30.81;42.61;100326.72;1639573;85;20441;-78
2021/06/21 10:58:03;;;;;;;;;;;;;;;30.72;43.01;100320.20;1649051;86;20210;-78
2021/06/21 11:00:43;;;;;;;;;;;;;;;30.72;43.05;100321.58;1656315;86;20188;-78
2021/06/21 11:03:38;;;;;;;;;;;;;;;30.74;43.42;100333.16;1662016;85;20209;-78
2021/06/21 11:06:06;;;;;;;;;;;;;;;30.73;43.72;100323.78;1663128;85;20319;-77
2021/06/21 11:08:45;;;;;;;;;;;;;;;30.74;44.05;100312.98;1657732;85;20155;-77
2021/06/21 11:11:37;;;;;;;;;;;;;;;30.76;43.94;100319.05;1650289;85;20523;-78
2021/06/21 11:14:16;;;;;;;;;;;;;;;30.79;43.72;100322.59;1646785;85;20167;-77
2021/06/21 11:16:43;;;;;;;;;;;;;;;30.81;43.84;100323.13;1647594;87;20210;-78
2021/06/21 11:19:24;;;;;;;;;;;;;;;30.85;43.83;100322.80;1647573;87;20178;-77
2021/06/21 11:21:58;;;;;;;;;;;;;;;30.87;43.77;100317.78;1652787;85;20448;-76
2021/06/21 11:24:43;;;;;;;;;;;;;;;30.87;43.64;100321.94;1648454;86;20178;-77
2021/06/21 11:27:09;;;;;;;;;;;;;;;30.78;43.80;100312.09;1645639;86;20233;-76
2021/06/21 11:29:38;;;;;;;;;;;;;;;30.77;43.88;100318.75;1647633;86;20401;-77
2021/06/21 11:32:05;;;;;;;;;;;;;;;30.73;44.03;100320.45;1646955;86;20555;-77
2021/06/21 11:35:00;;;;;;;;;;;;;;;30.72;44.50;100318.00;1647880;85;20177;-77
2021/06/21 11:37:35;;;;;;;;;;;;;;;30.74;44.34;100320.71;1647828;87;20157;-77
2021/06/21 11:40:25;;;;;;;;;;;;;;;30.76;44.51;100317.67;1648855;86;20153;-77
2021/06/21 11:43:04;;;;;;;;;;;;;;;30.75;44.40;100318.23;1658295;85;20530;-78
2021/06/21 11:45:53;;;;;;;;;;;;;;;30.76;44.49;100314.34;1649279;86;20175;-77
2021/06/21 11:48:26;;;;;;;;;;;;;;;30.79;44.38;100317.88;1646192;86;20441;-76
2021/06/21 11:50:53;;;;;;;;;;;;;;;30.81;44.23;100312.89;1656387;86;20161;-77
2021/06/21 11:53:19;;;;;;;;;;;;;;;30.81;44.19;100321.19;1661122;85;20182;-77
2021/06/21 11:55:45;;;;;;;;;;;;;;;30.82;44.21;100315.91;1662137;86;20341;-78
2021/06/21 11:58:12;;;;;;;;;;;;;;;30.83;43.85;100312.02;1662897;86;20161;-78
2021/06/21 12:00:38;;;;;;;;;;;;;;;30.82;44.29;100318.67;1662830;86;20136;-77
2021/06/21 12:03:09;;;;;;;;;;;;;;;30.80;44.19;100318.73;1646699;87;20119;-77
2021/06/21 12:05:36;;;;;;;;;;;;;;;30.76;44.51;100316.28;1646121;86;20203;-77
2021/06/21 12:08:13;;;;;;;;;;;;;;;30.75;44.42;100312.70;1645848;87;20363;-78
2021/06/21 12:10:40;;;;;;;;;;;;;;;30.77;44.27;100322.89;1647043;86;20391;-77
2021/06/21 12:13:08;;;;;;;;;;;;;;;30.75;44.04;100318.23;1648577;86;20151;-77
2021/06/21 12:15:40;;;;;;;;;;;;;;;30.77;44.45;100316.55;1649271;87;20166;-78
2021/06/21 12:18:06;;;;;;;;;;;;;;;30.79;44.94;100323.41;1649920;85;20241;-77
2021/06/21 12:20:33;;;;;;;;;;;;;;;30.96;44.54;100334.55;1659560;85;20204;-77
2021/06/21 12:23:05;;;;;;;;;;;;;;;30.81;44.76;100330.05;1651690;85;20168;-78
2021/06/21 12:25:40;;;;;;;;;;;;;;;30.81;44.50;100344.69;1673612;85;20168;-77
2021/06/21 12:28:16;;;;;;;;;;;;;;;30.81;44.26;100325.33;1673772;85;20192;-79
2021/06/21 12:30:46;;;;;;;;;;;;;;;30.81;44.61;100328.09;1675464;85;20141;-78
2021/06/21 12:33:31;;;;;;;;;;;;;;;30.86;44.78;100335.51;1674212;85;20180;-78
2021/06/21 12:36:14;;;;;;;;;;;;;;;30.89;44.63;100336.31;1673884;85;20298;-78
2021/06/21 12:38:46;;;;;;;;;;;;;;;30.90;44.73;100337.12;1675024;85;20153;-78
2021/06/21 12:41:15;;;;;;;;;;;;;;;30.94;44.89;100334.03;1660362;85;20208;-78
2021/06/21 12:44:03;;;;;;;;;;;;;;;30.96;44.90;100338.13;1652475;85;20174;-78
2021/06/21 12:46:32;;;;;;;;;;;;;;;30.99;44.86;100335.34;1648425;87;20302;-78